sensor_id;sensor_type;location;lat;lon;timestamp;P1;durP1;ratioP1;P2;durP2;ratioP2
14052;SDS011;7101;51.600;7.310;2022-07-03T00:02:27;3.78;;;1.25;;
14052;SDS011;7101;51.600;7.310;2022-07-03T00:04:54;4.45;;;1.50;;
14052;SDS011;7101;51.600;7.310;2022-07-03T00:07:21;3.13;;;1.40;;
14052;SDS011;7101;51.600;7.310;2022-07-03T00:09:48;4.40;;;1.60;;
14052;SDS011;7101;51.600;7.310;2022-07-03T00:12:15;1.88;;;1.38;;
14052;SDS011;7101;51.600;7.310;2022-07-03T00:14:42;2.00;;;1.30;;
14052;SDS011;7101;51.600;7.310;2022-07-03T00:17:09;1.55;;;1.10;;
14052;SDS011;7101;51.600;7.310;2022-07-03T00:19:37;2.00;;;1.30;;
14052;SDS011;7101;51.600;7.310;2022-07-03T00:22:04;2.60;;;1.15;;
14052;SDS011;7101;51.600;7.310;2022-07-03T00:24:37;4.60;;;1.52;;
14052;SDS011;7101;51.600;7.310;2022-07-03T00:27:09;2.65;;;1.40;;
14052;SDS011;7101;51.600;7.310;2022-07-03T00:29:38;2.00;;;1.30;;
14052;SDS011;7101;51.600;7.310;2022-07-03T00:32:08;7.20;;;1.63;;
14052;SDS011;7101;51.600;7.310;2022-07-03T00:34:37;6.43;;;1.50;;
14052;SDS011;7101;51.600;7.310;2022-07-03T00:37:06;2.72;;;1.45;;
14052;SDS011;7101;51.600;7.310;2022-07-03T00:39:34;4.07;;;1.40;;
14052;SDS011;7101;51.600;7.310;2022-07-03T00:42:03;2.55;;;1.50;;
14052;SDS011;7101;51.600;7.310;2022-07-03T00:44:33;2.85;;;1.30;;
14052;SDS011;7101;51.600;7.310;2022-07-03T00:47:03;1.85;;;1.30;;
14052;SDS011;7101;51.600;7.310;2022-07-03T00:49:31;4.85;;;1.70;;
14052;SDS011;7101;51.600;7.310;2022-07-03T00:52:02;6.45;;;1.63;;
14052;SDS011;7101;51.600;7.310;2022-07-03T00:54:32;3.90;;;1.58;;
14052;SDS011;7101;51.600;7.310;2022-07-03T00:57:01;3.75;;;1.75;;
14052;SDS011;7101;51.600;7.310;2022-07-03T00:59:31;4.75;;;1.70;;
14052;SDS011;7101;51.600;7.310;2022-07-03T01:02:01;3.85;;;1.58;;
14052;SDS011;7101;51.600;7.310;2022-07-03T01:04:34;2.47;;;1.40;;
14052;SDS011;7101;51.600;7.310;2022-07-03T01:07:12;2.75;;;1.63;;
14052;SDS011;7101;51.600;7.310;2022-07-03T01:09:48;2.22;;;1.50;;
14052;SDS011;7101;51.600;7.310;2022-07-03T01:12:23;3.38;;;1.85;;
14052;SDS011;7101;51.600;7.310;2022-07-03T01:14:58;3.80;;;1.70;;
14052;SDS011;7101;51.600;7.310;2022-07-03T01:17:38;2.28;;;1.63;;
14052;SDS011;7101;51.600;7.310;2022-07-03T01:20:06;3.25;;;1.60;;
14052;SDS011;7101;51.600;7.310;2022-07-03T01:22:35;2.75;;;1.50;;
14052;SDS011;7101;51.600;7.310;2022-07-03T01:25:21;9.55;;;1.63;;
14052;SDS011;7101;51.600;7.310;2022-07-03T01:30:37;2.20;;;1.65;;
14052;SDS011;7101;51.600;7.310;2022-07-03T01:33:07;3.67;;;1.75;;
14052;SDS011;7101;51.600;7.310;2022-07-03T01:35:35;3.17;;;1.48;;
14052;SDS011;7101;51.600;7.310;2022-07-03T01:38:06;4.45;;;1.80;;
14052;SDS011;7101;51.600;7.310;2022-07-03T01:40:35;2.80;;;1.70;;
14052;SDS011;7101;51.600;7.310;2022-07-03T01:43:04;4.45;;;1.77;;
14052;SDS011;7101;51.600;7.310;2022-07-03T01:45:35;2.28;;;1.67;;
14052;SDS011;7101;51.600;7.310;2022-07-03T01:48:05;2.53;;;1.80;;
14052;SDS011;7101;51.600;7.310;2022-07-03T01:50:33;2.92;;;2.00;;
14052;SDS011;7101;51.600;7.310;2022-07-03T01:53:02;2.95;;;1.73;;
14052;SDS011;7101;51.600;7.310;2022-07-03T01:55:30;2.90;;;1.60;;
14052;SDS011;7101;51.600;7.310;2022-07-03T01:57:58;2.60;;;2.03;;
14052;SDS011;7101;51.600;7.310;2022-07-03T02:00:25;2.97;;;1.95;;
14052;SDS011;7101;51.600;7.310;2022-07-03T02:02:56;4.43;;;2.10;;
14052;SDS011;7101;51.600;7.310;2022-07-03T02:08:11;5.15;;;1.92;;
14052;SDS011;7101;51.600;7.310;2022-07-03T02:10:46;3.45;;;2.17;;
14052;SDS011;7101;51.600;7.310;2022-07-03T02:13:19;4.40;;;2.10;;
14052;SDS011;7101;51.600;7.310;2022-07-03T02:15:50;3.08;;;2.05;;
14052;SDS011;7101;51.600;7.310;2022-07-03T02:18:26;4.47;;;2.15;;
14052;SDS011;7101;51.600;7.310;2022-07-03T02:20:56;3.92;;;2.10;;
14052;SDS011;7101;51.600;7.310;2022-07-03T02:23:31;4.03;;;2.13;;
14052;SDS011;7101;51.600;7.310;2022-07-03T02:26:03;3.47;;;1.95;;
14052;SDS011;7101;51.600;7.310;2022-07-03T02:28:40;4.88;;;2.00;;
14052;SDS011;7101;51.600;7.310;2022-07-03T02:31:18;5.43;;;2.00;;
14052;SDS011;7101;51.600;7.310;2022-07-03T02:33:48;2.88;;;2.10;;
14052;SDS011;7101;51.600;7.310;2022-07-03T02:36:21;4.10;;;2.17;;
14052;SDS011;7101;51.600;7.310;2022-07-03T02:38:51;3.30;;;2.00;;
14052;SDS011;7101;51.600;7.310;2022-07-03T02:41:23;5.20;;;2.03;;
14052;SDS011;7101;51.600;7.310;2022-07-03T02:43:55;5.82;;;2.40;;
14052;SDS011;7101;51.600;7.310;2022-07-03T02:46:30;3.08;;;2.08;;
14052;SDS011;7101;51.600;7.310;2022-07-03T02:49:20;2.97;;;1.92;;
14052;SDS011;7101;51.600;7.310;2022-07-03T02:51:57;3.28;;;2.28;;
14052;SDS011;7101;51.600;7.310;2022-07-03T02:54:37;3.22;;;2.33;;
14052;SDS011;7101;51.600;7.310;2022-07-03T02:57:09;2.60;;;1.90;;
14052;SDS011;7101;51.600;7.310;2022-07-03T02:59:41;3.05;;;1.85;;
14052;SDS011;7101;51.600;7.310;2022-07-03T03:02:19;2.28;;;1.90;;
14052;SDS011;7101;51.600;7.310;2022-07-03T03:05:02;2.88;;;1.90;;
14052;SDS011;7101;51.600;7.310;2022-07-03T03:07:34;2.78;;;1.83;;
14052;SDS011;7101;51.600;7.310;2022-07-03T03:10:01;2.22;;;1.90;;
14052;SDS011;7101;51.600;7.310;2022-07-03T03:12:29;4.53;;;2.00;;
14052;SDS011;7101;51.600;7.310;2022-07-03T03:15:00;3.90;;;2.10;;
14052;SDS011;7101;51.600;7.310;2022-07-03T03:17:29;3.67;;;2.10;;
14052;SDS011;7101;51.600;7.310;2022-07-03T03:20:04;4.50;;;2.10;;
14052;SDS011;7101;51.600;7.310;2022-07-03T03:22:33;3.42;;;1.95;;
14052;SDS011;7101;51.600;7.310;2022-07-03T03:25:09;3.83;;;2.00;;
14052;SDS011;7101;51.600;7.310;2022-07-03T03:27:36;3.25;;;1.90;;
14052;SDS011;7101;51.600;7.310;2022-07-03T03:30:03;4.68;;;2.20;;
14052;SDS011;7101;51.600;7.310;2022-07-03T03:32:31;5.35;;;2.00;;
14052;SDS011;7101;51.600;7.310;2022-07-03T03:35:01;3.17;;;2.03;;
14052;SDS011;7101;51.600;7.310;2022-07-03T03:37:30;4.68;;;2.40;;
14052;SDS011;7101;51.600;7.310;2022-07-03T03:39:57;7.60;;;2.38;;
14052;SDS011;7101;51.600;7.310;2022-07-03T03:42:24;3.28;;;2.10;;
14052;SDS011;7101;51.600;7.310;2022-07-03T03:44:51;4.15;;;1.90;;
14052;SDS011;7101;51.600;7.310;2022-07-03T03:47:18;5.75;;;2.10;;
14052;SDS011;7101;51.600;7.310;2022-07-03T03:49:45;2.80;;;1.95;;
14052;SDS011;7101;51.600;7.310;2022-07-03T03:52:13;3.80;;;2.15;;
14052;SDS011;7101;51.600;7.310;2022-07-03T03:54:40;7.40;;;2.40;;
14052;SDS011;7101;51.600;7.310;2022-07-03T03:57:17;4.78;;;1.92;;
14052;SDS011;7101;51.600;7.310;2022-07-03T03:59:45;3.80;;;1.98;;
14052;SDS011;7101;51.600;7.310;2022-07-03T04:02:12;3.85;;;2.08;;
14052;SDS011;7101;51.600;7.310;2022-07-03T04:04:39;3.38;;;1.90;;
14052;SDS011;7101;51.600;7.310;2022-07-03T04:07:05;2.00;;;1.77;;
14052;SDS011;7101;51.600;7.310;2022-07-03T04:09:34;4.00;;;2.00;;
14052;SDS011;7101;51.600;7.310;2022-07-03T04:12:01;4.30;;;1.90;;
14052;SDS011;7101;51.600;7.310;2022-07-03T04:14:28;5.55;;;1.70;;
14052;SDS011;7101;51.600;7.310;2022-07-03T04:16:56;2.65;;;1.75;;
14052;SDS011;7101;51.600;7.310;2022-07-03T04:19:22;4.40;;;1.83;;
14052;SDS011;7101;51.600;7.310;2022-07-03T04:21:49;2.63;;;1.67;;
14052;SDS011;7101;51.600;7.310;2022-07-03T04:24:17;3.00;;;1.88;;
14052;SDS011;7101;51.600;7.310;2022-07-03T04:26:45;4.13;;;1.63;;
14052;SDS011;7101;51.600;7.310;2022-07-03T04:29:13;3.28;;;2.20;;
14052;SDS011;7101;51.600;7.310;2022-07-03T04:31:39;2.72;;;1.63;;
14052;SDS011;7101;51.600;7.310;2022-07-03T04:34:06;2.72;;;1.90;;
14052;SDS011;7101;51.600;7.310;2022-07-03T04:36:33;4.55;;;1.80;;
14052;SDS011;7101;51.600;7.310;2022-07-03T04:39:00;2.15;;;1.73;;
14052;SDS011;7101;51.600;7.310;2022-07-03T04:41:27;3.35;;;1.98;;
14052;SDS011;7101;51.600;7.310;2022-07-03T04:43:55;3.38;;;2.60;;
14052;SDS011;7101;51.600;7.310;2022-07-03T04:46:22;4.40;;;2.60;;
14052;SDS011;7101;51.600;7.310;2022-07-03T04:48:48;5.15;;;3.35;;
14052;SDS011;7101;51.600;7.310;2022-07-03T04:51:15;4.35;;;3.00;;
14052;SDS011;7101;51.600;7.310;2022-07-03T04:53:42;4.65;;;2.60;;
14052;SDS011;7101;51.600;7.310;2022-07-03T04:56:09;4.35;;;2.40;;
14052;SDS011;7101;51.600;7.310;2022-07-03T04:58:36;4.38;;;2.35;;
14052;SDS011;7101;51.600;7.310;2022-07-03T05:01:04;3.38;;;2.33;;
14052;SDS011;7101;51.600;7.310;2022-07-03T05:03:31;4.80;;;2.22;;
14052;SDS011;7101;51.600;7.310;2022-07-03T05:05:58;2.63;;;1.55;;
14052;SDS011;7101;51.600;7.310;2022-07-03T05:08:26;7.18;;;1.65;;
14052;SDS011;7101;51.600;7.310;2022-07-03T05:10:53;3.00;;;1.70;;
14052;SDS011;7101;51.600;7.310;2022-07-03T05:13:20;3.80;;;1.80;;
14052;SDS011;7101;51.600;7.310;2022-07-03T05:15:47;3.55;;;1.80;;
14052;SDS011;7101;51.600;7.310;2022-07-03T05:18:15;3.17;;;1.70;;
14052;SDS011;7101;51.600;7.310;2022-07-03T05:20:42;4.82;;;1.88;;
14052;SDS011;7101;51.600;7.310;2022-07-03T05:23:09;3.45;;;1.90;;
14052;SDS011;7101;51.600;7.310;2022-07-03T05:25:35;4.38;;;2.00;;
14052;SDS011;7101;51.600;7.310;2022-07-03T05:28:02;6.80;;;2.35;;
14052;SDS011;7101;51.600;7.310;2022-07-03T05:30:30;3.75;;;2.20;;
14052;SDS011;7101;51.600;7.310;2022-07-03T05:32:56;4.38;;;2.40;;
14052;SDS011;7101;51.600;7.310;2022-07-03T05:35:25;6.25;;;2.45;;
14052;SDS011;7101;51.600;7.310;2022-07-03T05:37:52;3.47;;;2.10;;
14052;SDS011;7101;51.600;7.310;2022-07-03T05:40:18;3.83;;;2.17;;
14052;SDS011;7101;51.600;7.310;2022-07-03T05:42:44;5.35;;;2.00;;
14052;SDS011;7101;51.600;7.310;2022-07-03T05:45:11;4.43;;;2.05;;
14052;SDS011;7101;51.600;7.310;2022-07-03T05:47:38;3.80;;;2.00;;
14052;SDS011;7101;51.600;7.310;2022-07-03T05:50:06;4.35;;;2.08;;
14052;SDS011;7101;51.600;7.310;2022-07-03T05:52:34;5.97;;;2.15;;
14052;SDS011;7101;51.600;7.310;2022-07-03T05:55:01;4.38;;;2.20;;
14052;SDS011;7101;51.600;7.310;2022-07-03T05:57:29;6.07;;;2.20;;
14052;SDS011;7101;51.600;7.310;2022-07-03T05:59:55;4.30;;;2.40;;
14052;SDS011;7101;51.600;7.310;2022-07-03T06:02:22;3.13;;;2.28;;
14052;SDS011;7101;51.600;7.310;2022-07-03T06:04:49;5.05;;;2.35;;
14052;SDS011;7101;51.600;7.310;2022-07-03T06:07:16;4.15;;;2.45;;
14052;SDS011;7101;51.600;7.310;2022-07-03T06:09:44;5.88;;;2.50;;
14052;SDS011;7101;51.600;7.310;2022-07-03T06:12:13;8.55;;;2.40;;
14052;SDS011;7101;51.600;7.310;2022-07-03T06:14:40;8.63;;;2.53;;
14052;SDS011;7101;51.600;7.310;2022-07-03T06:17:06;4.35;;;2.40;;
14052;SDS011;7101;51.600;7.310;2022-07-03T06:19:33;5.13;;;2.40;;
14052;SDS011;7101;51.600;7.310;2022-07-03T06:22:00;4.53;;;2.38;;
14052;SDS011;7101;51.600;7.310;2022-07-03T06:24:27;5.78;;;2.40;;
14052;SDS011;7101;51.600;7.310;2022-07-03T06:26:55;4.85;;;2.50;;
14052;SDS011;7101;51.600;7.310;2022-07-03T06:29:22;4.03;;;2.40;;
14052;SDS011;7101;51.600;7.310;2022-07-03T06:31:50;5.70;;;2.42;;
14052;SDS011;7101;51.600;7.310;2022-07-03T06:34:17;4.63;;;2.50;;
14052;SDS011;7101;51.600;7.310;2022-07-03T06:36:43;4.15;;;2.60;;
14052;SDS011;7101;51.600;7.310;2022-07-03T06:39:10;5.45;;;2.70;;
14052;SDS011;7101;51.600;7.310;2022-07-03T06:41:37;4.78;;;2.53;;
14052;SDS011;7101;51.600;7.310;2022-07-03T06:44:05;4.13;;;2.63;;
14052;SDS011;7101;51.600;7.310;2022-07-03T06:46:35;5.72;;;2.42;;
14052;SDS011;7101;51.600;7.310;2022-07-03T06:49:02;5.30;;;2.70;;
14052;SDS011;7101;51.600;7.310;2022-07-03T06:51:28;6.28;;;2.58;;
14052;SDS011;7101;51.600;7.310;2022-07-03T06:53:56;4.78;;;2.42;;
14052;SDS011;7101;51.600;7.310;2022-07-03T06:56:23;5.30;;;2.30;;
14052;SDS011;7101;51.600;7.310;2022-07-03T06:58:50;5.05;;;2.47;;
14052;SDS011;7101;51.600;7.310;2022-07-03T07:01:18;5.00;;;2.40;;
14052;SDS011;7101;51.600;7.310;2022-07-03T07:03:45;7.57;;;2.72;;
14052;SDS011;7101;51.600;7.310;2022-07-03T07:06:11;4.72;;;2.58;;
14052;SDS011;7101;51.600;7.310;2022-07-03T07:08:38;5.82;;;2.83;;
14052;SDS011;7101;51.600;7.310;2022-07-03T07:11:05;7.53;;;2.88;;
14052;SDS011;7101;51.600;7.310;2022-07-03T07:13:32;6.00;;;2.53;;
14052;SDS011;7101;51.600;7.310;2022-07-03T07:15:59;5.22;;;2.85;;
14052;SDS011;7101;51.600;7.310;2022-07-03T07:18:28;4.50;;;2.50;;
14052;SDS011;7101;51.600;7.310;2022-07-03T07:20:55;11.20;;;2.33;;
14052;SDS011;7101;51.600;7.310;2022-07-03T07:23:22;5.30;;;2.58;;
14052;SDS011;7101;51.600;7.310;2022-07-03T07:25:48;4.50;;;2.10;;
14052;SDS011;7101;51.600;7.310;2022-07-03T07:28:15;8.20;;;2.60;;
14052;SDS011;7101;51.600;7.310;2022-07-03T07:30:42;5.57;;;2.42;;
14052;SDS011;7101;51.600;7.310;2022-07-03T07:33:09;5.70;;;2.28;;
14052;SDS011;7101;51.600;7.310;2022-07-03T07:35:37;5.38;;;2.45;;
14052;SDS011;7101;51.600;7.310;2022-07-03T07:38:04;2.58;;;2.05;;
14052;SDS011;7101;51.600;7.310;2022-07-03T07:40:31;5.18;;;2.50;;
14052;SDS011;7101;51.600;7.310;2022-07-03T07:42:57;3.90;;;2.20;;
14052;SDS011;7101;51.600;7.310;2022-07-03T07:45:24;5.00;;;2.30;;
14052;SDS011;7101;51.600;7.310;2022-07-03T07:47:51;4.32;;;2.22;;
14052;SDS011;7101;51.600;7.310;2022-07-03T07:50:18;8.85;;;2.22;;
14052;SDS011;7101;51.600;7.310;2022-07-03T07:52:46;5.82;;;2.17;;
14052;SDS011;7101;51.600;7.310;2022-07-03T07:55:13;4.70;;;2.20;;
14052;SDS011;7101;51.600;7.310;2022-07-03T07:57:40;6.47;;;2.20;;
14052;SDS011;7101;51.600;7.310;2022-07-03T08:00:08;5.30;;;2.38;;
14052;SDS011;7101;51.600;7.310;2022-07-03T08:02:36;5.53;;;2.53;;
14052;SDS011;7101;51.600;7.310;2022-07-03T08:05:20;4.85;;;2.25;;
14052;SDS011;7101;51.600;7.310;2022-07-03T08:08:03;3.97;;;2.38;;
14052;SDS011;7101;51.600;7.310;2022-07-03T08:10:35;3.83;;;2.20;;
14052;SDS011;7101;51.600;7.310;2022-07-03T08:13:03;5.88;;;2.20;;
14052;SDS011;7101;51.600;7.310;2022-07-03T08:15:30;4.25;;;2.38;;
14052;SDS011;7101;51.600;7.310;2022-07-03T08:17:57;3.97;;;2.70;;
14052;SDS011;7101;51.600;7.310;2022-07-03T08:20:24;4.88;;;2.28;;
14052;SDS011;7101;51.600;7.310;2022-07-03T08:22:51;3.65;;;2.10;;
14052;SDS011;7101;51.600;7.310;2022-07-03T08:25:19;4.82;;;2.63;;
14052;SDS011;7101;51.600;7.310;2022-07-03T08:27:46;4.38;;;2.40;;
14052;SDS011;7101;51.600;7.310;2022-07-03T08:30:13;8.13;;;2.75;;
14052;SDS011;7101;51.600;7.310;2022-07-03T08:32:42;5.57;;;2.83;;
14052;SDS011;7101;51.600;7.310;2022-07-03T08:35:10;3.65;;;2.22;;
14052;SDS011;7101;51.600;7.310;2022-07-03T08:37:37;6.47;;;2.47;;
14052;SDS011;7101;51.600;7.310;2022-07-03T08:40:06;6.68;;;2.40;;
14052;SDS011;7101;51.600;7.310;2022-07-03T08:42:36;5.45;;;2.53;;
14052;SDS011;7101;51.600;7.310;2022-07-03T08:45:05;4.43;;;2.28;;
14052;SDS011;7101;51.600;7.310;2022-07-03T08:47:34;6.40;;;2.25;;
14052;SDS011;7101;51.600;7.310;2022-07-03T08:50:03;4.60;;;2.35;;
14052;SDS011;7101;51.600;7.310;2022-07-03T08:52:31;5.13;;;2.42;;
14052;SDS011;7101;51.600;7.310;2022-07-03T08:55:01;5.43;;;2.70;;
14052;SDS011;7101;51.600;7.310;2022-07-03T08:57:29;6.75;;;2.70;;
14052;SDS011;7101;51.600;7.310;2022-07-03T08:59:59;7.30;;;2.60;;
14052;SDS011;7101;51.600;7.310;2022-07-03T09:02:30;5.85;;;2.80;;
14052;SDS011;7101;51.600;7.310;2022-07-03T09:04:58;5.72;;;2.38;;
14052;SDS011;7101;51.600;7.310;2022-07-03T09:07:27;8.25;;;2.40;;
14052;SDS011;7101;51.600;7.310;2022-07-03T09:09:56;9.30;;;2.55;;
14052;SDS011;7101;51.600;7.310;2022-07-03T09:12:22;5.13;;;2.45;;
14052;SDS011;7101;51.600;7.310;2022-07-03T09:14:49;4.80;;;2.65;;
14052;SDS011;7101;51.600;7.310;2022-07-03T09:17:18;6.65;;;2.25;;
14052;SDS011;7101;51.600;7.310;2022-07-03T09:19:45;4.85;;;2.60;;
14052;SDS011;7101;51.600;7.310;2022-07-03T09:22:16;6.18;;;2.38;;
14052;SDS011;7101;51.600;7.310;2022-07-03T09:24:47;13.82;;;2.65;;
14052;SDS011;7101;51.600;7.310;2022-07-03T09:27:15;5.80;;;2.53;;
14052;SDS011;7101;51.600;7.310;2022-07-03T09:32:27;4.35;;;2.47;;
14052;SDS011;7101;51.600;7.310;2022-07-03T09:35:14;8.02;;;2.72;;
14052;SDS011;7101;51.600;7.310;2022-07-03T09:37:48;4.78;;;2.55;;
14052;SDS011;7101;51.600;7.310;2022-07-03T09:40:16;4.15;;;2.30;;
14052;SDS011;7101;51.600;7.310;2022-07-03T09:42:56;5.25;;;2.33;;
14052;SDS011;7101;51.600;7.310;2022-07-03T09:45:27;7.68;;;2.50;;
14052;SDS011;7101;51.600;7.310;2022-07-03T09:48:27;4.47;;;1.98;;
14052;SDS011;7101;51.600;7.310;2022-07-03T09:51:11;4.63;;;2.30;;
14052;SDS011;7101;51.600;7.310;2022-07-03T09:53:49;6.10;;;2.42;;
14052;SDS011;7101;51.600;7.310;2022-07-03T09:56:19;4.57;;;1.80;;
14052;SDS011;7101;51.600;7.310;2022-07-03T10:01:33;1.52;;;1.40;;
14052;SDS011;7101;51.600;7.310;2022-07-03T10:04:12;3.25;;;1.75;;
14052;SDS011;7101;51.600;7.310;2022-07-03T10:06:47;3.25;;;1.88;;
14052;SDS011;7101;51.600;7.310;2022-07-03T10:09:15;2.50;;;1.63;;
14052;SDS011;7101;51.600;7.310;2022-07-03T10:11:43;4.93;;;2.00;;
14052;SDS011;7101;51.600;7.310;2022-07-03T10:14:12;3.95;;;2.20;;
14052;SDS011;7101;51.600;7.310;2022-07-03T10:16:40;3.45;;;1.80;;
14052;SDS011;7101;51.600;7.310;2022-07-03T10:19:07;4.22;;;1.88;;
14052;SDS011;7101;51.600;7.310;2022-07-03T10:21:41;3.30;;;1.98;;
14052;SDS011;7101;51.600;7.310;2022-07-03T10:24:10;5.85;;;2.50;;
14052;SDS011;7101;51.600;7.310;2022-07-03T10:26:38;2.80;;;1.90;;
14052;SDS011;7101;51.600;7.310;2022-07-03T10:29:07;3.22;;;2.40;;
14052;SDS011;7101;51.600;7.310;2022-07-03T10:31:36;4.10;;;2.35;;
14052;SDS011;7101;51.600;7.310;2022-07-03T10:34:04;3.58;;;2.25;;
14052;SDS011;7101;51.600;7.310;2022-07-03T10:36:33;6.88;;;2.28;;
14052;SDS011;7101;51.600;7.310;2022-07-03T10:39:04;7.03;;;2.55;;
14052;SDS011;7101;51.600;7.310;2022-07-03T10:41:33;6.22;;;2.20;;
14052;SDS011;7101;51.600;7.310;2022-07-03T10:44:31;6.03;;;2.25;;
14052;SDS011;7101;51.600;7.310;2022-07-03T10:47:36;6.68;;;2.08;;
14052;SDS011;7101;51.600;7.310;2022-07-03T10:50:08;6.95;;;2.13;;
14052;SDS011;7101;51.600;7.310;2022-07-03T10:52:39;5.32;;;2.17;;
14052;SDS011;7101;51.600;7.310;2022-07-03T10:55:06;4.60;;;2.05;;
14052;SDS011;7101;51.600;7.310;2022-07-03T10:57:34;3.88;;;1.80;;
14052;SDS011;7101;51.600;7.310;2022-07-03T11:02:48;5.63;;;1.75;;
14052;SDS011;7101;51.600;7.310;2022-07-03T11:05:16;3.42;;;1.45;;
14052;SDS011;7101;51.600;7.310;2022-07-03T11:08:06;4.05;;;1.95;;
14052;SDS011;7101;51.600;7.310;2022-07-03T11:10:38;4.28;;;1.60;;
14052;SDS011;7101;51.600;7.310;2022-07-03T11:13:12;4.97;;;1.60;;
14052;SDS011;7101;51.600;7.310;2022-07-03T11:15:46;2.83;;;1.48;;
14052;SDS011;7101;51.600;7.310;2022-07-03T11:18:19;2.95;;;1.60;;
14052;SDS011;7101;51.600;7.310;2022-07-03T11:21:07;3.40;;;1.50;;
14052;SDS011;7101;51.600;7.310;2022-07-03T11:24:05;4.82;;;1.83;;
14052;SDS011;7101;51.600;7.310;2022-07-03T11:29:47;2.97;;;1.50;;
14052;SDS011;7101;51.600;7.310;2022-07-03T11:38:22;2.45;;;1.33;;
14052;SDS011;7101;51.600;7.310;2022-07-03T11:40:53;2.80;;;1.33;;
14052;SDS011;7101;51.600;7.310;2022-07-03T11:43:21;3.28;;;1.40;;
14052;SDS011;7101;51.600;7.310;2022-07-03T11:45:48;2.40;;;1.30;;
14052;SDS011;7101;51.600;7.310;2022-07-03T11:48:16;5.50;;;1.40;;
14052;SDS011;7101;51.600;7.310;2022-07-03T11:50:45;3.70;;;1.42;;
14052;SDS011;7101;51.600;7.310;2022-07-03T11:53:19;4.65;;;1.42;;
14052;SDS011;7101;51.600;7.310;2022-07-03T11:55:49;2.63;;;1.63;;
14052;SDS011;7101;51.600;7.310;2022-07-03T11:58:21;4.15;;;1.17;;
14052;SDS011;7101;51.600;7.310;2022-07-03T12:00:49;5.65;;;1.85;;
14052;SDS011;7101;51.600;7.310;2022-07-03T12:03:22;4.63;;;1.63;;
14052;SDS011;7101;51.600;7.310;2022-07-03T12:05:53;5.65;;;1.55;;
14052;SDS011;7101;51.600;7.310;2022-07-03T12:08:23;4.47;;;1.52;;
14052;SDS011;7101;51.600;7.310;2022-07-03T12:10:56;3.22;;;1.40;;
14052;SDS011;7101;51.600;7.310;2022-07-03T12:13:25;5.07;;;1.30;;
14052;SDS011;7101;51.600;7.310;2022-07-03T12:15:54;3.08;;;1.38;;
14052;SDS011;7101;51.600;7.310;2022-07-03T12:18:26;3.20;;;1.27;;
14052;SDS011;7101;51.600;7.310;2022-07-03T12:20:53;3.53;;;1.48;;
14052;SDS011;7101;51.600;7.310;2022-07-03T12:23:20;4.40;;;1.40;;
14052;SDS011;7101;51.600;7.310;2022-07-03T12:25:47;3.05;;;1.15;;
14052;SDS011;7101;51.600;7.310;2022-07-03T12:28:15;3.28;;;1.30;;
14052;SDS011;7101;51.600;7.310;2022-07-03T12:30:42;2.53;;;1.23;;
14052;SDS011;7101;51.600;7.310;2022-07-03T12:33:12;2.47;;;1.13;;
14052;SDS011;7101;51.600;7.310;2022-07-03T12:35:38;2.40;;;1.33;;
14052;SDS011;7101;51.600;7.310;2022-07-03T12:38:05;3.15;;;1.20;;
14052;SDS011;7101;51.600;7.310;2022-07-03T12:40:32;2.45;;;1.15;;
14052;SDS011;7101;51.600;7.310;2022-07-03T12:42:59;2.22;;;1.40;;
14052;SDS011;7101;51.600;7.310;2022-07-03T12:45:28;2.05;;;1.33;;
14052;SDS011;7101;51.600;7.310;2022-07-03T12:47:58;4.55;;;1.17;;
14052;SDS011;7101;51.600;7.310;2022-07-03T12:50:25;3.38;;;1.58;;
14052;SDS011;7101;51.600;7.310;2022-07-03T12:52:53;3.72;;;1.35;;
14052;SDS011;7101;51.600;7.310;2022-07-03T12:55:24;2.88;;;1.20;;
14052;SDS011;7101;51.600;7.310;2022-07-03T13:00:55;5.10;;;1.30;;
14052;SDS011;7101;51.600;7.310;2022-07-03T13:03:26;3.88;;;1.35;;
14052;SDS011;7101;51.600;7.310;2022-07-03T13:05:53;4.22;;;1.50;;
14052;SDS011;7101;51.600;7.310;2022-07-03T13:08:20;4.18;;;1.50;;
14052;SDS011;7101;51.600;7.310;2022-07-03T13:10:53;3.58;;;1.30;;
14052;SDS011;7101;51.600;7.310;2022-07-03T13:13:20;3.80;;;1.40;;
14052;SDS011;7101;51.600;7.310;2022-07-03T13:15:47;2.92;;;1.30;;
14052;SDS011;7101;51.600;7.310;2022-07-03T13:18:15;3.67;;;1.48;;
14052;SDS011;7101;51.600;7.310;2022-07-03T13:20:42;4.10;;;1.50;;
14052;SDS011;7101;51.600;7.310;2022-07-03T13:23:09;2.40;;;1.15;;
14052;SDS011;7101;51.600;7.310;2022-07-03T13:25:37;11.65;;;1.27;;
14052;SDS011;7101;51.600;7.310;2022-07-03T13:28:05;3.25;;;1.30;;
14052;SDS011;7101;51.600;7.310;2022-07-03T13:30:33;3.63;;;1.25;;
14052;SDS011;7101;51.600;7.310;2022-07-03T13:33:00;3.50;;;1.20;;
14052;SDS011;7101;51.600;7.310;2022-07-03T13:35:29;2.70;;;1.30;;
14052;SDS011;7101;51.600;7.310;2022-07-03T13:37:56;3.42;;;1.02;;
14052;SDS011;7101;51.600;7.310;2022-07-03T13:40:23;1.52;;;0.98;;
14052;SDS011;7101;51.600;7.310;2022-07-03T13:42:50;3.78;;;1.00;;
14052;SDS011;7101;51.600;7.310;2022-07-03T13:45:17;3.22;;;1.25;;
14052;SDS011;7101;51.600;7.310;2022-07-03T13:47:44;3.53;;;1.00;;
14052;SDS011;7101;51.600;7.310;2022-07-03T13:50:11;3.85;;;1.00;;
14052;SDS011;7101;51.600;7.310;2022-07-03T13:52:39;3.53;;;1.10;;
14052;SDS011;7101;51.600;7.310;2022-07-03T13:55:06;3.03;;;1.30;;
14052;SDS011;7101;51.600;7.310;2022-07-03T13:57:33;3.25;;;1.23;;
14052;SDS011;7101;51.600;7.310;2022-07-03T14:00:00;2.83;;;1.17;;
14052;SDS011;7101;51.600;7.310;2022-07-03T14:02:28;2.38;;;1.15;;
14052;SDS011;7101;51.600;7.310;2022-07-03T14:04:54;3.08;;;1.10;;
14052;SDS011;7101;51.600;7.310;2022-07-03T14:07:22;2.17;;;1.10;;
14052;SDS011;7101;51.600;7.310;2022-07-03T14:09:50;5.30;;;1.10;;
14052;SDS011;7101;51.600;7.310;2022-07-03T14:12:16;2.22;;;1.08;;
14052;SDS011;7101;51.600;7.310;2022-07-03T14:14:43;2.10;;;1.00;;
14052;SDS011;7101;51.600;7.310;2022-07-03T14:17:10;2.13;;;1.10;;
14052;SDS011;7101;51.600;7.310;2022-07-03T14:19:37;2.30;;;1.20;;
14052;SDS011;7101;51.600;7.310;2022-07-03T14:22:03;2.63;;;1.10;;
14052;SDS011;7101;51.600;7.310;2022-07-03T14:24:30;5.43;;;1.30;;
14052;SDS011;7101;51.600;7.310;2022-07-03T14:26:59;1.58;;;1.10;;
14052;SDS011;7101;51.600;7.310;2022-07-03T14:29:43;2.95;;;1.20;;
14052;SDS011;7101;51.600;7.310;2022-07-03T14:32:27;3.50;;;1.20;;
14052;SDS011;7101;51.600;7.310;2022-07-03T14:34:58;1.90;;;1.08;;
14052;SDS011;7101;51.600;7.310;2022-07-03T14:37:25;1.63;;;0.98;;
14052;SDS011;7101;51.600;7.310;2022-07-03T14:39:52;2.67;;;1.20;;
14052;SDS011;7101;51.600;7.310;2022-07-03T14:42:21;3.15;;;1.00;;
14052;SDS011;7101;51.600;7.310;2022-07-03T14:44:47;4.25;;;1.40;;
14052;SDS011;7101;51.600;7.310;2022-07-03T14:47:14;3.67;;;0.98;;
14052;SDS011;7101;51.600;7.310;2022-07-03T14:49:41;1.92;;;1.00;;
14052;SDS011;7101;51.600;7.310;2022-07-03T14:52:08;2.80;;;1.00;;
14052;SDS011;7101;51.600;7.310;2022-07-03T14:54:35;1.83;;;1.40;;
14052;SDS011;7101;51.600;7.310;2022-07-03T14:57:06;3.80;;;1.15;;
14052;SDS011;7101;51.600;7.310;2022-07-03T14:59:45;1.95;;;1.00;;
14052;SDS011;7101;51.600;7.310;2022-07-03T15:02:30;3.30;;;1.17;;
14052;SDS011;7101;51.600;7.310;2022-07-03T15:05:05;3.47;;;1.10;;
14052;SDS011;7101;51.600;7.310;2022-07-03T15:07:34;1.77;;;1.08;;
14052;SDS011;7101;51.600;7.310;2022-07-03T15:10:05;1.55;;;1.00;;
14052;SDS011;7101;51.600;7.310;2022-07-03T15:12:36;3.55;;;1.00;;
14052;SDS011;7101;51.600;7.310;2022-07-03T15:15:06;3.08;;;1.13;;
14052;SDS011;7101;51.600;7.310;2022-07-03T15:17:35;1.50;;;0.98;;
14052;SDS011;7101;51.600;7.310;2022-07-03T15:20:02;2.58;;;1.00;;
14052;SDS011;7101;51.600;7.310;2022-07-03T15:22:30;3.53;;;1.20;;
14052;SDS011;7101;51.600;7.310;2022-07-03T15:24:58;3.17;;;1.20;;
14052;SDS011;7101;51.600;7.310;2022-07-03T15:27:25;2.50;;;1.13;;
14052;SDS011;7101;51.600;7.310;2022-07-03T15:29:55;2.35;;;1.10;;
14052;SDS011;7101;51.600;7.310;2022-07-03T15:32:24;2.40;;;0.98;;
14052;SDS011;7101;51.600;7.310;2022-07-03T15:34:51;1.40;;;0.90;;
14052;SDS011;7101;51.600;7.310;2022-07-03T15:37:23;5.45;;;1.38;;
14052;SDS011;7101;51.600;7.310;2022-07-03T15:40:03;3.08;;;1.20;;
14052;SDS011;7101;51.600;7.310;2022-07-03T15:42:35;2.83;;;1.42;;